Westerdam — PINX — position and weather

sailwx.info

Track history (hours):
 
Tides and Currents Weather Stations Pressure Air Temp Water Temp Dewpoint Dewpoint Depression Visibility Wind Speed Wind Dir Waves Ship Positions

Westerdam

Operator: Holland America Line

Last reported at 2019-Jun-16 23:24 UTC. Time now 2019-Jun-17 18:57 UTC.
Position N 49°17' W 123°07'.

Type: Passenger vessel. MMSI: 244128000.

Date/timePositionNaut miles runAvg speedWind from/ knotsBaromVisibWave heightAir tempDewpointWater temp
2019-Jun-16 23:24N 49°17' W 123°07'0 0.0
2019-Jun-16 22:55N 49°17' W 123°07'0 0.0
2019-Jun-16 22:27N 49°17' W 123°07'0 0.0
2019-Jun-16 21:58N 49°17' W 123°07'0 0.0
2019-Jun-16 21:28N 49°17' W 123°07'0 0.0
2019-Jun-16 20:52N 49°17' W 123°07'0 0.0
2019-Jun-16 20:24N 49°17' W 123°07'0 0.0
2019-Jun-16 20:00N 49°17' W 123°07'0 0.0
2019-Jun-16 19:25N 49°17' W 123°07'0 0.0
2019-Jun-16 18:52N 49°17' W 123°07'0 0.0
2019-Jun-16 18:31N 49°17' W 123°07'0 0.0
2019-Jun-16 18:01N 49°17' W 123°07'0 0.0
2019-Jun-16 17:31N 49°17' W 123°07'0 0.0
2019-Jun-16 17:00N 49°17' W 123°07'0 0.0
2019-Jun-16 16:30N 49°17' W 123°07'0 0.0
2019-Jun-16 15:58N 49°17' W 123°07'0 0.0
2019-Jun-16 15:25N 49°17' W 123°07'0 0.0
2019-Jun-16 15:01N 49°17' W 123°07'0 0.0
2019-Jun-16 14:31N 49°17' W 123°07'0 0.0
2019-Jun-16 14:00N 49°17' W 123°07'1 2.0
2019-Jun-16 13:30N 49°18' W 123°07'510.9
2019-Jun-16 13:00N 49°19' W 123°15'815.8
2019-Jun-16 12:30N 49°19' W 123°28'816.0
2019-Jun-16 12:00N 49°21' W 123°40'816.2
2019-Jun-16 11:30N 49°22' W 123°52'816.0
2019-Jun-16 11:00N 49°22' W 124°04'815.4
2019-Jun-16 10:31N 49°24' W 124°15'816.8
2019-Jun-16 10:00N 49°28' W 124°27'816.8
2019-Jun-16 09:30N 49°34' W 124°36'816.9
2019-Jun-16 09:00N 49°40' W 124°44'816.6
2019-Jun-16 08:30N 49°46' W 124°53'815.8
2019-Jun-16 08:00N 49°52' W 125°02'714.1
2019-Jun-16 07:31N 49°57' W 125°09'714.6
2019-Jun-16 07:01N 50°04' W 125°15'713.1
2019-Jun-16 06:30N 50°09' W 125°21'611.4
2019-Jun-16 06:00N 50°14' W 125°23'710.7
2019-Jun-16 05:23N 50°20' W 125°27'8413.8
2019-Jun-15 23:16N 50°51' W 127°31'614.8
2019-Jun-15 22:54N 50°54' W 127°38'616.1
2019-Jun-15 22:31N 50°58' W 127°46'815.9
2019-Jun-15 22:00N 51°02' W 127°57'816.1
2019-Jun-15 21:30N 51°06' W 128°08'816.3
2019-Jun-15 21:00N 51°11' W 128°18'816.3
2019-Jun-15 20:30N 51°15' W 128°29'816.2
2019-Jun-15 20:01N 51°20' W 128°39'816.5
2019-Jun-15 19:30N 51°26' W 128°48'816.6
2019-Jun-15 19:00N 51°34' W 128°51'916.3
2019-Jun-15 18:29N 51°42' W 128°56'816.4
2019-Jun-15 18:00N 51°49' W 129°04'816.0
2019-Jun-15 17:30N 51°55' W 129°11'9616.3
2019-Jun-15 11:37N 53°15' W 130°38'316.7
2019-Jun-15 11:28N 53°17' W 130°41'816.6
2019-Jun-15 11:00N 53°25' W 130°46'817.0
2019-Jun-15 10:30N 53°33' W 130°50'917.2
2019-Jun-15 10:00N 53°41' W 130°54'816.9
2019-Jun-15 09:30N 53°49' W 130°58'918.3
2019-Jun-15 09:00N 53°58' W 131°00'1019.4
2019-Jun-15 08:30N 54°08' W 131°02'919.0
2019-Jun-15 08:00N 54°17' W 131°00'713.2
2019-Jun-15 07:30N 54°24' W 131°02'1118.8
2019-Jun-15 06:56N 54°32' W 131°13'715.6
2019-Jun-15 06:29N 54°39' W 131°15'117 6.7
2019-Jun-14 13:00N 56°18' W 133°06'3216.1 120 / 61020.210.8 10.1 8.510.0
2019-Jun-14 11:00N 56°00' W 133°54'191 4.2 350 / 51020.010.8 10.4 7.810.0
2019-Jun-12 13:00N 59°06' W 135°18'7 6.7 170 / 201017.1 5.4 12.5 9.912.0
2019-Jun-12 12:00N 59°00' W 135°12'1212.0 180 / 171018.0 2.2 12.4 9.212.0
2019-Jun-12 11:00N 58°48' W 135°12'38 7.2 170 / 121018.3 5.4 12.5 9.112.0
2019-Jun-12 05:39N 58°10' W 135°18'2 9.8
2019-Jun-12 05:25N 58°11' W 135°22'410.0
2019-Jun-12 04:59N 58°13' W 135°29'5 9.9
2019-Jun-12 04:30N 58°15' W 135°37'5 9.9
2019-Jun-12 04:00N 58°18' W 135°45'611.3
2019-Jun-12 03:31N 58°20' W 135°55'611.8
2019-Jun-12 03:00N 58°25' W 135°59'1111.1
2019-Jun-12 02:00N 58°36' W 136°03'5 9.9
2019-Jun-12 01:30N 58°41' W 136°06'713.5
2019-Jun-12 01:00N 58°45' W 136°17'714.8
2019-Jun-12 00:31N 58°49' W 136°28'7 1.1
2019-Jun-11 18:24N 58°45' W 136°17'614.9
2019-Jun-11 18:00N 58°41' W 136°09'510.9
2019-Jun-11 17:31N 58°37' W 136°02'713.7
2019-Jun-11 17:00N 58°30' W 136°03'611.4
2019-Jun-11 16:30N 58°26' W 135°58'510.5
2019-Jun-11 16:00N 58°21' W 136°02'911.3
2019-Jun-11 15:14N 58°18' W 136°18'2611.6
2019-Jun-11 13:00N 58°12' W 137°06'8712.4 070 / 251016.9 2.2 10.610.0 9.0
2019-Jun-11 06:00N 58°42' W 139°42'3712.5 050 / 221015.310.8 11.810.411.5
2019-Jun-11 03:00N 58°42' W 140°54'17812.7 100 / 251016.910.8 11.510.111.5
2019-Jun-10 13:00N 59°06' W 146°36'1413.7 030 / 61019.227.0 10.1 7.210.3
2019-Jun-10 12:00N 59°12' W 147°00'3812.7 360 / 51019.527.0 10.2 7.310.6
2019-Jun-10 09:00N 59°30' W 148°06'47 2.2 280 / 51020.227.0 10.2 7.410.6
2019-Jun-09 12:00N 60°00' W 149°18'25112.0 170 / 51024.7 5.4 10.4 6.9 9.0
2019-Jun-08 15:00N 58°42' W 141°30'15412.6 200 / 51022.0 5.4 9.3 7.9 9.0
2019-Jun-08 02:48N 58°08' W 136°43'1913.1
2019-Jun-08 01:19N 58°19' W 136°12'514.7
2019-Jun-08 01:00N 58°20' W 136°04'611.0
2019-Jun-08 00:30N 58°25' W 135°60'4 8.7
2019-Jun-08 00:00N 58°29' W 136°03'510.9
2019-Jun-07 23:31N 58°35' W 136°03'714.4
2019-Jun-07 23:00N 58°42' W 136°07'714.5
2019-Jun-07 22:30N 58°45' W 136°19'4 0.7
2019-Jun-07 16:16N 58°48' W 136°25'414.8
2019-Jun-07 16:00N 58°46' W 136°19'714.9
2019-Jun-07 15:30N 58°41' W 136°09'511.0
2019-Jun-07 15:00N 58°37' W 136°02'713.2
2019-Jun-07 14:30N 58°30' W 136°03'510.0
2019-Jun-07 14:00N 58°26' W 135°58'510.3
2019-Jun-07 13:31N 58°21' W 135°57'611.6
2019-Jun-07 13:00N 58°18' W 135°47'814.5
2019-Jun-07 12:29N 58°16' W 135°34'714.0
2019-Jun-07 12:00N 58°13' W 135°22'  
Track history (hours):
 
Tides and Currents Weather Stations Pressure Air Temp Water Temp Dewpoint Dewpoint Depression Visibility Wind Speed Wind Dir Waves Ship Positions

Westerdam

Operator: Holland America Line

Last reported at 2019-Jun-16 23:24 UTC. Time now 2019-Jun-17 18:57 UTC.
Position N 49°17' W 123°07'.

Type: Passenger vessel. MMSI: 244128000.

Date/timePositionNaut miles runAvg speedWind from/ knotsBaromVisibWave heightAir tempDewpointWater temp
2019-Jun-16 23:24N 49°17' W 123°07'0 0.0
2019-Jun-16 22:55N 49°17' W 123°07'0 0.0
2019-Jun-16 22:27N 49°17' W 123°07'0 0.0
2019-Jun-16 21:58N 49°17' W 123°07'0 0.0
2019-Jun-16 21:28N 49°17' W 123°07'0 0.0
2019-Jun-16 20:52N 49°17' W 123°07'0 0.0
2019-Jun-16 20:24N 49°17' W 123°07'0 0.0
2019-Jun-16 20:00N 49°17' W 123°07'0 0.0
2019-Jun-16 19:25N 49°17' W 123°07'0 0.0
2019-Jun-16 18:52N 49°17' W 123°07'0 0.0
2019-Jun-16 18:31N 49°17' W 123°07'0 0.0
2019-Jun-16 18:01N 49°17' W 123°07'0 0.0
2019-Jun-16 17:31N 49°17' W 123°07'0 0.0
2019-Jun-16 17:00N 49°17' W 123°07'0 0.0
2019-Jun-16 16:30N 49°17' W 123°07'0 0.0
2019-Jun-16 15:58N 49°17' W 123°07'0 0.0
2019-Jun-16 15:25N 49°17' W 123°07'0 0.0
2019-Jun-16 15:01N 49°17' W 123°07'0 0.0
2019-Jun-16 14:31N 49°17' W 123°07'0 0.0
2019-Jun-16 14:00N 49°17' W 123°07'1 2.0
2019-Jun-16 13:30N 49°18' W 123°07'510.9
2019-Jun-16 13:00N 49°19' W 123°15'815.8
2019-Jun-16 12:30N 49°19' W 123°28'816.0
2019-Jun-16 12:00N 49°21' W 123°40'816.2
2019-Jun-16 11:30N 49°22' W 123°52'816.0
2019-Jun-16 11:00N 49°22' W 124°04'815.4
2019-Jun-16 10:31N 49°24' W 124°15'816.8
2019-Jun-16 10:00N 49°28' W 124°27'816.8
2019-Jun-16 09:30N 49°34' W 124°36'816.9
2019-Jun-16 09:00N 49°40' W 124°44'816.6
2019-Jun-16 08:30N 49°46' W 124°53'815.8
2019-Jun-16 08:00N 49°52' W 125°02'714.1
2019-Jun-16 07:31N 49°57' W 125°09'714.6
2019-Jun-16 07:01N 50°04' W 125°15'713.1
2019-Jun-16 06:30N 50°09' W 125°21'611.4
2019-Jun-16 06:00N 50°14' W 125°23'710.7
2019-Jun-16 05:23N 50°20' W 125°27'8413.8
2019-Jun-15 23:16N 50°51' W 127°31'614.8
2019-Jun-15 22:54N 50°54' W 127°38'616.1
2019-Jun-15 22:31N 50°58' W 127°46'815.9
2019-Jun-15 22:00N 51°02' W 127°57'816.1
2019-Jun-15 21:30N 51°06' W 128°08'816.3
2019-Jun-15 21:00N 51°11' W 128°18'816.3
2019-Jun-15 20:30N 51°15' W 128°29'816.2
2019-Jun-15 20:01N 51°20' W 128°39'816.5
2019-Jun-15 19:30N 51°26' W 128°48'816.6
2019-Jun-15 19:00N 51°34' W 128°51'916.3
2019-Jun-15 18:29N 51°42' W 128°56'816.4
2019-Jun-15 18:00N 51°49' W 129°04'816.0
2019-Jun-15 17:30N 51°55' W 129°11'9616.3
2019-Jun-15 11:37N 53°15' W 130°38'316.7
2019-Jun-15 11:28N 53°17' W 130°41'816.6
2019-Jun-15 11:00N 53°25' W 130°46'817.0
2019-Jun-15 10:30N 53°33' W 130°50'917.2
2019-Jun-15 10:00N 53°41' W 130°54'816.9
2019-Jun-15 09:30N 53°49' W 130°58'918.3
2019-Jun-15 09:00N 53°58' W 131°00'1019.4
2019-Jun-15 08:30N 54°08' W 131°02'919.0
2019-Jun-15 08:00N 54°17' W 131°00'713.2
2019-Jun-15 07:30N 54°24' W 131°02'1118.8
2019-Jun-15 06:56N 54°32' W 131°13'715.6
2019-Jun-15 06:29N 54°39' W 131°15'117 6.7
2019-Jun-14 13:00N 56°18' W 133°06'3216.1 120 / 61020.210.8 10.1 8.510.0
2019-Jun-14 11:00N 56°00' W 133°54'191 4.2 350 / 51020.010.8 10.4 7.810.0
2019-Jun-12 13:00N 59°06' W 135°18'7 6.7 170 / 201017.1 5.4 12.5 9.912.0
2019-Jun-12 12:00N 59°00' W 135°12'1212.0 180 / 171018.0 2.2 12.4 9.212.0
2019-Jun-12 11:00N 58°48' W 135°12'38 7.2 170 / 121018.3 5.4 12.5 9.112.0
2019-Jun-12 05:39N 58°10' W 135°18'2 9.8
2019-Jun-12 05:25N 58°11' W 135°22'410.0
2019-Jun-12 04:59N 58°13' W 135°29'5 9.9
2019-Jun-12 04:30N 58°15' W 135°37'5 9.9
2019-Jun-12 04:00N 58°18' W 135°45'611.3
2019-Jun-12 03:31N 58°20' W 135°55'611.8
2019-Jun-12 03:00N 58°25' W 135°59'1111.1
2019-Jun-12 02:00N 58°36' W 136°03'5 9.9
2019-Jun-12 01:30N 58°41' W 136°06'713.5
2019-Jun-12 01:00N 58°45' W 136°17'714.8
2019-Jun-12 00:31N 58°49' W 136°28'7 1.1
2019-Jun-11 18:24N 58°45' W 136°17'614.9
2019-Jun-11 18:00N 58°41' W 136°09'510.9
2019-Jun-11 17:31N 58°37' W 136°02'713.7
2019-Jun-11 17:00N 58°30' W 136°03'611.4
2019-Jun-11 16:30N 58°26' W 135°58'510.5
2019-Jun-11 16:00N 58°21' W 136°02'911.3
2019-Jun-11 15:14N 58°18' W 136°18'2611.6
2019-Jun-11 13:00N 58°12' W 137°06'8712.4 070 / 251016.9 2.2 10.610.0 9.0
2019-Jun-11 06:00N 58°42' W 139°42'3712.5 050 / 221015.310.8 11.810.411.5
2019-Jun-11 03:00N 58°42' W 140°54'17812.7 100 / 251016.910.8 11.510.111.5
2019-Jun-10 13:00N 59°06' W 146°36'1413.7 030 / 61019.227.0 10.1 7.210.3
2019-Jun-10 12:00N 59°12' W 147°00'3812.7 360 / 51019.527.0 10.2 7.310.6
2019-Jun-10 09:00N 59°30' W 148°06'47 2.2 280 / 51020.227.0 10.2 7.410.6
2019-Jun-09 12:00N 60°00' W 149°18'25112.0 170 / 51024.7 5.4 10.4 6.9 9.0
2019-Jun-08 15:00N 58°42' W 141°30'15412.6 200 / 51022.0 5.4 9.3 7.9 9.0
2019-Jun-08 02:48N 58°08' W 136°43'1913.1
2019-Jun-08 01:19N 58°19' W 136°12'514.7
2019-Jun-08 01:00N 58°20' W 136°04'611.0
2019-Jun-08 00:30N 58°25' W 135°60'4 8.7
2019-Jun-08 00:00N 58°29' W 136°03'510.9
2019-Jun-07 23:31N 58°35' W 136°03'714.4
2019-Jun-07 23:00N 58°42' W 136°07'714.5
2019-Jun-07 22:30N 58°45' W 136°19'4 0.7
2019-Jun-07 16:16N 58°48' W 136°25'414.8
2019-Jun-07 16:00N 58°46' W 136°19'714.9
2019-Jun-07 15:30N 58°41' W 136°09'511.0
2019-Jun-07 15:00N 58°37' W 136°02'713.2
2019-Jun-07 14:30N 58°30' W 136°03'510.0
2019-Jun-07 14:00N 58°26' W 135°58'510.3
2019-Jun-07 13:31N 58°21' W 135°57'611.6
2019-Jun-07 13:00N 58°18' W 135°47'814.5
2019-Jun-07 12:29N 58°16' W 135°34'714.0
2019-Jun-07 12:00N 58°13' W 135°22'  

Dump ship's entire track history